Forest, Georgia
Current Conditions -  °F | °C
As of 7:52 PM on Thursday 27 Nov 2014 (Local Time) from KATL Reporting Station
Broken Clouds Broken Clouds  
Wind Chill: 34°   Ceiling: 4000
Heat Index: 40°   Visibility: 10mi
Dew Point: 25°   Wind: 8mph
Humidity: 55%   Direction: 320°NW
Pressure: 30.35"   Gusts: NA
Location:  33.6219°N, 84.3693°W
Report Text: KATL 280052Z 32007KT 10SM BKN040 04/M04 A3035 RMK AO2 SLP284 T00441039
Loading
Personal Weather Stations






























Interactive Weather Map New forecast layout! Learn more

10-Day Weather Forecast

Advertisements
Track Severe Weather on mobile